Time;durP1;ratioP1;P1;durP2;ratioP2;P2;SDS_P1;SDS_P2;PMS_P1;PMS_P2;Temp;Humidity;BMP_temperature;BMP_pressure;BME280_temperature;BME280_humidity;BME280_pressure;Samples;Min_cycle;Max_cycle;Signal;HPM_P1;HPM_P2
2022/05/16 00:00:15;;;;;;;12.77;6.53;;;13.90;99.90;;;;;;4894285;29;20055;-96
2022/05/16 00:02:46;;;;;;;13.77;6.97;;;13.90;99.90;;;;;;4890131;29;20048;-96
2022/05/16 00:05:12;;;;;;;12.50;6.38;;;13.90;99.90;;;;;;4893568;29;20048;-92
2022/05/16 00:07:38;;;;;;;12.65;6.85;;;13.80;99.90;;;;;;4909655;29;20041;-96
2022/05/16 00:10:06;;;;;;;12.38;6.35;;;13.90;99.90;;;;;;4893005;29;20073;-95
2022/05/16 00:12:34;;;;;;;16.20;6.60;;;13.90;99.90;;;;;;4894171;29;20052;-96
2022/05/16 00:15:01;;;;;;;12.57;6.85;;;13.80;99.90;;;;;;4915700;29;20051;-94
2022/05/16 00:17:27;;;;;;;12.30;6.78;;;13.80;99.90;;;;;;4893382;29;20132;-94
2022/05/16 00:19:58;;;;;;;11.93;6.63;;;13.80;99.90;;;;;;4876597;29;20053;-96
2022/05/16 00:22:27;;;;;;;;;;;13.70;99.90;;;;;;4879833;29;20072;-96
2022/05/16 00:24:53;;;;;;;12.80;6.95;;;13.60;99.90;;;;;;4897361;29;19959;-94
2022/05/16 00:27:19;;;;;;;12.02;6.75;;;13.60;99.90;;;;;;4904685;29;20045;-96
2022/05/16 00:29:45;;;;;;;13.63;7.03;;;13.70;99.90;;;;;;4877537;29;20021;-95
2022/05/16 00:32:13;;;;;;;11.88;6.93;;;13.50;99.90;;;;;;4895015;29;20068;-94
2022/05/16 00:34:44;;;;;;;12.43;7.18;;;13.60;99.90;;;;;;4878876;29;20063;-96
2022/05/16 00:37:13;;;;;;;12.77;7.18;;;13.60;99.90;;;;;;4879871;29;20045;-95
2022/05/16 00:39:39;;;;;;;13.13;7.13;;;13.60;99.90;;;;;;4894722;29;20052;-92
2022/05/16 00:42:05;;;;;;;11.57;6.95;;;13.60;99.90;;;;;;4893784;29;20498;-92
2022/05/16 00:44:34;;;;;;;13.48;6.78;;;13.50;99.90;;;;;;4873186;29;20113;-96
2022/05/16 00:47:02;;;;;;;13.38;6.97;;;13.60;99.90;;;;;;4857961;29;20058;-96
2022/05/16 00:49:45;;;;;;;13.02;6.65;;;13.60;99.90;;;;;;4889224;29;20052;-95
2022/05/16 00:52:24;;;;;;;12.82;6.57;;;13.50;99.90;;;;;;4877506;29;20052;-94
2022/05/16 00:54:52;;;;;;;11.73;6.63;;;13.50;99.90;;;;;;4876465;29;20188;-96
2022/05/16 00:57:22;;;;;;;10.98;6.75;;;13.50;99.90;;;;;;4875677;29;20032;-96
2022/05/16 01:00:07;;;;;;;13.38;6.63;;;13.50;99.90;;;;;;4889282;29;20379;-95
2022/05/16 01:05:20;;;;;;;13.27;7.03;;;13.40;99.90;;;;;;4908585;29;20066;-96
2022/05/16 01:07:46;;;;;;;10.45;6.30;;;13.50;99.90;;;;;;4887752;29;20048;-96
2022/05/16 01:10:16;;;;;;;12.95;6.00;;;13.40;99.90;;;;;;4888879;29;20044;-95
2022/05/16 01:12:45;;;;;;;11.95;6.10;;;13.40;99.90;;;;;;4891424;29;20060;-96
2022/05/16 01:15:27;;;;;;;11.23;5.70;;;13.40;99.90;;;;;;4890914;29;20057;-95
2022/05/16 01:17:52;;;;;;;11.20;5.97;;;13.40;99.90;;;;;;4857810;29;20057;-96
2022/05/16 01:20:21;;;;;;;11.85;6.20;;;13.40;99.90;;;;;;4871154;29;20112;-96
2022/05/16 01:22:50;;;;;;;11.05;5.97;;;13.40;99.90;;;;;;4881870;29;20072;-93
2022/05/16 01:25:21;;;;;;;12.48;6.13;;;13.40;99.90;;;;;;4877595;29;20049;-96
2022/05/16 01:28:04;;;;;;;10.73;5.35;;;13.30;99.90;;;;;;4887296;29;20048;-96
2022/05/16 01:30:35;;;;;;;12.10;6.40;;;13.30;99.90;;;;;;4875454;29;20083;-96
2022/05/16 01:33:01;;;;;;;10.60;5.63;;;13.30;99.90;;;;;;4875406;29;20098;-92
2022/05/16 01:35:31;;;;;;;12.52;5.55;;;13.30;99.90;;;;;;4873441;29;20101;-96
2022/05/16 01:40:42;;;;;;;10.95;5.57;;;13.30;99.90;;;;;;4893006;29;20045;-95
2022/05/16 01:43:09;;;;;;;10.75;5.72;;;13.30;99.90;;;;;;4893557;29;20049;-96
2022/05/16 01:45:39;;;;;;;11.68;5.05;;;13.30;99.90;;;;;;4969249;24;20082;-96
2022/05/16 01:48:05;;;;;;;12.52;5.32;;;13.30;99.90;;;;;;4893261;29;20077;-91
2022/05/16 01:50:41;;;;;;;12.30;5.80;;;13.30;99.90;;;;;;4893801;29;20025;-96
2022/05/16 01:53:11;;;;;;;10.02;5.45;;;13.30;99.90;;;;;;4893473;29;20057;-96
2022/05/16 01:55:43;;;;;;;10.52;5.30;;;13.30;99.90;;;;;;4880928;29;20045;-96
2022/05/16 01:58:09;;;;;;;12.15;5.57;;;13.20;99.90;;;;;;4876838;29;20085;-96
2022/05/16 02:00:36;;;;;;;9.07;5.05;;;13.30;99.90;;;;;;4878138;29;20041;-96
2022/05/16 02:03:05;;;;;;;11.32;5.18;;;13.40;99.90;;;;;;4862338;29;20060;-95
2022/05/16 02:05:44;;;;;;;10.75;5.20;;;13.20;99.90;;;;;;4876304;29;20099;-96
2022/05/16 02:08:17;;;;;;;10.95;5.07;;;13.30;99.90;;;;;;4949933;23;20053;-96
2022/05/16 02:10:44;;;;;;;10.02;4.80;;;13.20;99.90;;;;;;4906344;29;20049;-96
2022/05/16 02:13:37;;;;;;;10.18;4.97;;;13.20;99.90;;;;;;5039433;23;20060;-95
2022/05/16 02:16:06;;;;;;;11.57;4.90;;;13.30;99.90;;;;;;5199592;23;20067;-96
2022/05/16 02:18:32;;;;;;;11.50;5.00;;;13.20;99.90;;;;;;4915920;29;20024;-94
2022/05/16 02:29:09;;;;;;;11.63;4.60;;;13.20;99.90;;;;;;4882359;23;20056;-95
2022/05/16 02:31:34;;;;;;;10.75;4.85;;;13.20;99.90;;;;;;4931758;29;20059;-96
2022/05/16 02:34:00;;;;;;;11.43;4.65;;;13.20;99.90;;;;;;4899764;29;20044;-96
2022/05/16 02:36:28;;;;;;;9.75;4.53;;;13.20;99.90;;;;;;4890465;29;20044;-95
2022/05/16 02:38:54;;;;;;;11.02;4.32;;;13.20;99.90;;;;;;4928713;29;20035;-96
2022/05/16 02:41:20;;;;;;;9.93;4.75;;;13.20;99.90;;;;;;4894853;29;20044;-94
2022/05/16 02:43:46;;;;;;;8.88;4.05;;;13.30;99.90;;;;;;4896439;29;20052;-95
2022/05/16 02:46:14;;;;;;;12.13;4.53;;;13.30;99.90;;;;;;4894491;29;20107;-93
2022/05/16 02:48:42;;;;;;;9.77;4.28;;;13.20;99.90;;;;;;4932200;29;20039;-96
2022/05/16 02:51:07;;;;;;;10.02;4.30;;;13.20;99.90;;;;;;4914507;29;20055;-96
2022/05/16 02:53:33;;;;;;;10.70;4.55;;;13.30;99.90;;;;;;4914157;29;20326;-93
2022/05/16 02:55:58;;;;;;;10.63;4.75;;;13.20;99.90;;;;;;4911458;29;20077;-96
2022/05/16 02:58:24;;;;;;;11.93;4.47;;;13.20;99.90;;;;;;4894888;29;20040;-96
2022/05/16 03:00:50;;;;;;;11.20;4.18;;;13.20;99.90;;;;;;4902047;29;20115;-96
2022/05/16 03:03:18;;;;;;;10.35;4.57;;;13.20;99.90;;;;;;4899666;29;20049;-96
2022/05/16 03:05:49;;;;;;;9.98;4.50;;;13.20;99.90;;;;;;4885885;29;20020;-95
2022/05/16 03:08:15;;;;;;;7.95;4.22;;;13.20;99.90;;;;;;5296815;23;20031;-94
2022/05/16 03:10:40;;;;;;;10.13;4.15;;;13.20;99.90;;;;;;5036064;23;20078;-96
2022/05/16 03:15:52;;;;;;;9.90;4.15;;;13.20;99.90;;;;;;4976179;23;20048;-96
2022/05/16 03:18:19;;;;;;;11.68;4.40;;;13.10;99.90;;;;;;5056926;23;20067;-96
2022/05/16 03:21:12;;;;;;;11.02;4.32;;;13.10;99.90;;;;;;4932827;29;20028;-96
2022/05/16 03:26:16;;;;;;;11.57;4.88;;;13.10;99.90;;;;;;5043818;23;20066;-95
2022/05/16 03:28:45;;;;;;;10.82;4.32;;;13.10;99.90;;;;;;5019540;23;20072;-96
2022/05/16 03:31:11;;;;;;;9.57;4.22;;;13.10;99.90;;;;;;4916222;29;20052;-96
2022/05/16 03:33:36;;;;;;;8.40;4.30;;;13.00;99.90;;;;;;4912172;29;20054;-96
2022/05/16 03:36:02;;;;;;;9.30;3.85;;;13.00;99.90;;;;;;4908838;29;20048;-94
2022/05/16 03:41:18;;;;;;;10.13;3.97;;;13.00;99.90;;;;;;4869437;29;20084;-96
2022/05/16 03:43:50;;;;;;;10.98;4.30;;;13.00;99.90;;;;;;4870881;29;20112;-92
2022/05/16 03:46:19;;;;;;;9.23;4.07;;;13.00;99.90;;;;;;4873181;29;20063;-96
2022/05/16 03:48:48;;;;;;;9.98;4.05;;;13.00;99.90;;;;;;4871340;29;20041;-96
2022/05/16 03:51:20;;;;;;;12.50;4.32;;;12.90;99.90;;;;;;4876378;29;20055;-95
2022/05/16 03:53:46;;;;;;;10.40;4.18;;;12.90;99.90;;;;;;4872626;29;20045;-96
2022/05/16 03:56:22;;;;;;;10.38;4.53;;;12.90;99.90;;;;;;4858981;29;20044;-96
2022/05/16 03:58:48;;;;;;;10.07;4.10;;;13.00;99.90;;;;;;4873928;29;20052;-95
2022/05/16 04:01:14;;;;;;;9.68;3.83;;;13.00;99.90;;;;;;4859098;29;20060;-95
2022/05/16 04:03:41;;;;;;;9.82;3.65;;;13.00;99.90;;;;;;4862034;29;20025;-95
2022/05/16 04:06:19;;;;;;;10.32;3.78;;;13.00;99.90;;;;;;4873549;29;20052;-96
2022/05/16 04:08:48;;;;;;;12.18;5.20;;;13.00;99.90;;;;;;4880636;29;20052;-94
2022/05/16 04:11:18;;;;;;;9.93;4.35;;;13.00;99.90;;;;;;4852728;29;20073;-96
2022/05/16 04:13:45;;;;;;;10.30;3.70;;;13.00;99.90;;;;;;4854924;29;20049;-96
2022/05/16 04:16:11;;;;;;;8.77;3.85;;;13.10;99.90;;;;;;4853256;29;20037;-95
2022/05/16 04:18:37;;;;;;;9.32;3.88;;;13.10;99.90;;;;;;4871028;29;20088;-93
2022/05/16 04:21:07;;;;;;;10.20;3.97;;;13.10;99.90;;;;;;4872313;29;20041;-96
2022/05/16 04:23:33;;;;;;;10.20;4.25;;;13.20;99.90;;;;;;4888599;29;20509;-95
2022/05/16 04:25:58;;;;;;;9.88;3.60;;;13.20;99.90;;;;;;4886786;29;20443;-94
2022/05/16 04:28:24;;;;;;;10.40;3.80;;;13.30;99.90;;;;;;4889888;29;20060;-96
2022/05/16 04:30:50;;;;;;;9.48;3.67;;;13.30;99.90;;;;;;4886205;29;20053;-96
2022/05/16 04:33:18;;;;;;;8.48;3.60;;;13.30;99.90;;;;;;4872405;29;20049;-96
2022/05/16 04:35:44;;;;;;;9.55;3.88;;;13.40;99.90;;;;;;4904860;29;20386;-95
2022/05/16 04:38:10;;;;;;;8.85;3.60;;;13.40;99.90;;;;;;4889451;29;20048;-92
2022/05/16 04:42:40;;;;;;;8.90;3.80;;;13.30;99.90;;;;;;4871554;29;20060;-96
2022/05/16 04:43:21;;;;;;;8.98;3.83;;;13.30;99.90;;;;;;4903949;29;20072;-96
2022/05/16 04:45:53;;;;;;;9.40;3.85;;;13.30;99.90;;;;;;4870605;29;20100;-96
2022/05/16 04:48:21;;;;;;;9.38;3.60;;;13.30;99.90;;;;;;4870334;29;20036;-96
2022/05/16 04:50:47;;;;;;;9.88;3.65;;;13.40;99.90;;;;;;4883768;29;20446;-96
2022/05/16 04:53:16;;;;;;;9.02;3.47;;;13.40;99.90;;;;;;4868850;29;20045;-96
2022/05/16 04:55:41;;;;;;;10.13;3.60;;;13.40;99.90;;;;;;4891055;29;20044;-96
2022/05/16 04:58:07;;;;;;;9.73;4.15;;;13.40;99.90;;;;;;4882150;29;20690;-94
2022/05/16 05:00:39;;;;;;;9.23;3.70;;;13.40;99.90;;;;;;4886779;29;20056;-96
2022/05/16 05:03:04;;;;;;;9.73;3.88;;;13.40;99.90;;;;;;4890207;29;20113;-96
2022/05/16 05:05:30;;;;;;;10.60;4.20;;;13.40;99.90;;;;;;4872043;29;20521;-96
2022/05/16 05:08:04;;;;;;;8.70;3.80;;;13.50;99.90;;;;;;4903463;29;20044;-96
2022/05/16 05:16:16;;;;;;;8.30;3.90;;;13.80;99.90;;;;;;4888499;29;20048;-92
2022/05/16 05:18:43;;;;;;;8.35;3.85;;;14.00;99.90;;;;;;4870709;29;20052;-96
2022/05/16 05:21:12;;;;;;;7.80;3.65;;;14.10;99.90;;;;;;4874824;29;20067;-96
2022/05/16 05:23:39;;;;;;;8.65;4.07;;;14.20;99.90;;;;;;4885976;29;20104;-94
2022/05/16 05:26:06;;;;;;;9.35;4.07;;;14.30;99.90;;;;;;4872668;29;20044;-95
2022/05/16 05:28:33;;;;;;;9.63;3.70;;;14.30;99.90;;;;;;4884267;29;20328;-94
2022/05/16 05:30:59;;;;;;;9.50;3.95;;;14.40;99.90;;;;;;4900120;29;20048;-95
2022/05/16 05:33:25;;;;;;;9.10;3.60;;;14.50;99.90;;;;;;4888751;29;20064;-96
2022/05/16 05:35:51;;;;;;;9.25;3.47;;;14.60;99.90;;;;;;4880808;29;20490;-92
2022/05/16 05:38:18;;;;;;;8.45;3.78;;;14.70;99.90;;;;;;4866154;29;20044;-95
2022/05/16 05:40:44;;;;;;;10.25;4.25;;;14.70;99.90;;;;;;4883970;29;20096;-96
2022/05/16 05:43:10;;;;;;;10.10;3.75;;;14.80;99.90;;;;;;4886976;29;20040;-96
2022/05/16 05:45:36;;;;;;;8.27;3.80;;;14.80;99.90;;;;;;4870121;29;20044;-95
2022/05/16 05:48:03;;;;;;;8.30;3.50;;;15.00;99.90;;;;;;4883168;29;20119;-96
2022/05/16 05:50:32;;;;;;;10.55;3.85;;;15.10;99.90;;;;;;4886323;29;20093;-95
2022/05/16 05:52:58;;;;;;;8.48;3.95;;;15.30;99.90;;;;;;4869636;29;20056;-91
2022/05/16 05:55:27;;;;;;;9.77;3.40;;;15.40;99.90;;;;;;4881820;29;20072;-95
2022/05/16 05:57:53;;;;;;;9.07;4.05;;;15.40;99.90;;;;;;4864234;29;20052;-90
2022/05/16 06:00:19;;;;;;;9.75;3.92;;;15.40;99.90;;;;;;4881185;29;20044;-94
2022/05/16 06:02:45;;;;;;;10.25;3.85;;;15.40;99.90;;;;;;4899987;29;20059;-91
2022/05/16 06:05:17;;;;;;;10.00;4.03;;;15.40;99.90;;;;;;4881241;29;20045;-90
2022/05/16 06:07:43;;;;;;;8.68;3.67;;;15.40;99.90;;;;;;4867730;29;20135;-96
2022/05/16 06:10:09;;;;;;;10.20;4.05;;;15.50;99.90;;;;;;4899790;29;20521;-96
2022/05/16 06:12:35;;;;;;;9.82;3.85;;;15.60;99.90;;;;;;4851883;29;20044;-92
2022/05/16 06:15:02;;;;;;;9.07;3.92;;;15.70;99.90;;;;;;4896151;29;20048;-92
2022/05/16 06:17:28;;;;;;;8.38;3.55;;;15.80;99.90;;;;;;4880325;29;20040;-93
2022/05/16 06:19:53;;;;;;;8.90;3.63;;;15.90;99.90;;;;;;4881054;29;20043;-94
2022/05/16 06:22:19;;;;;;;9.85;4.03;;;16.00;99.90;;;;;;4871525;29;20582;-95
2022/05/16 06:27:30;;;;;;;9.73;3.70;;;16.20;99.90;;;;;;4879505;29;20048;-96
2022/05/16 06:29:56;;;;;;;12.43;3.95;;;16.40;99.90;;;;;;4879856;29;20064;-90
2022/05/16 06:32:22;;;;;;;8.18;3.42;;;16.50;99.90;;;;;;4867052;29;20044;-96
2022/05/16 06:34:48;;;;;;;10.38;3.63;;;16.60;99.90;;;;;;4880738;29;20048;-96
2022/05/16 06:37:14;;;;;;;8.73;3.47;;;16.70;99.90;;;;;;4880698;29;20131;-94
2022/05/16 06:39:40;;;;;;;9.90;3.70;;;16.90;99.90;;;;;;4866692;29;20084;-96
2022/05/16 06:42:06;;;;;;;8.57;3.20;;;16.90;99.90;;;;;;4880879;29;20512;-95
2022/05/16 06:44:32;;;;;;;10.48;3.92;;;17.00;99.90;;;;;;4884384;29;20064;-93
2022/05/16 06:46:58;;;;;;;9.70;3.80;;;17.10;99.90;;;;;;4882710;29;20048;-94
2022/05/16 06:49:23;;;;;;;11.02;4.05;;;17.30;99.90;;;;;;4868538;29;20052;-96
2022/05/16 06:51:49;;;;;;;8.98;3.47;;;17.40;99.90;;;;;;4870007;29;20048;-96
2022/05/16 06:54:15;;;;;;;9.48;3.90;;;17.50;99.90;;;;;;4901686;29;20047;-96
2022/05/16 06:56:40;;;;;;;9.98;3.50;;;17.50;99.90;;;;;;4881701;29;20371;-96
2022/05/16 06:59:09;;;;;;;9.68;3.65;;;17.70;99.90;;;;;;4882124;29;20145;-93
2022/05/16 07:01:34;;;;;;;8.02;3.67;;;17.90;99.90;;;;;;4881057;29;20077;-95
2022/05/16 07:04:00;;;;;;;8.65;3.65;;;18.00;99.90;;;;;;4900419;29;20049;-96
2022/05/16 07:06:26;;;;;;;8.32;3.58;;;18.00;99.90;;;;;;4865713;29;20049;-94
2022/05/16 07:08:51;;;;;;;9.75;3.13;;;18.10;99.90;;;;;;4865770;29;20056;-94
2022/05/16 07:11:17;;;;;;;9.43;3.78;;;18.20;99.90;;;;;;4895925;29;20127;-95
2022/05/16 07:13:43;;;;;;;10.75;3.83;;;18.30;99.90;;;;;;4882113;29;20143;-92
2022/05/16 07:16:08;;;;;;;9.75;3.65;;;18.40;99.90;;;;;;4881701;29;20104;-96
2022/05/16 07:18:35;;;;;;;10.90;4.22;;;18.50;99.90;;;;;;4866381;29;20049;-96
2022/05/16 07:21:10;;;;;;;8.00;3.15;;;18.60;99.90;;;;;;4881731;29;20371;-96
2022/05/16 07:23:36;;;;;;;7.45;3.10;;;18.70;99.90;;;;;;4865914;29;20053;-91
2022/05/16 07:28:46;;;;;;;10.43;3.42;;;18.90;99.90;;;;;;4879601;29;20075;-91
2022/05/16 07:31:12;;;;;;;8.60;3.28;;;19.00;99.90;;;;;;4864171;29;20074;-94
2022/05/16 07:33:38;;;;;;;8.85;3.20;;;19.00;99.90;;;;;;4879445;29;20059;-93
2022/05/16 07:36:05;;;;;;;8.18;3.47;;;19.10;99.90;;;;;;4882830;29;20513;-94
2022/05/16 07:38:31;;;;;;;9.65;3.15;;;19.20;99.90;;;;;;4882007;29;20052;-92
2022/05/16 07:40:57;;;;;;;9.27;3.17;;;19.20;99.90;;;;;;4883032;29;20040;-90
2022/05/16 07:43:25;;;;;;;8.48;3.30;;;19.40;99.90;;;;;;4867333;29;20032;-93
2022/05/16 07:45:51;;;;;;;8.45;3.15;;;19.40;99.90;;;;;;4884598;29;20047;-94
2022/05/16 07:48:17;;;;;;;7.65;2.85;;;19.50;99.90;;;;;;4884537;29;20052;-96
2022/05/16 07:50:44;;;;;;;8.55;3.13;;;19.60;99.90;;;;;;4883092;29;20451;-92
2022/05/16 07:53:14;;;;;;;8.68;3.50;;;19.70;99.90;;;;;;4885058;29;20080;-95
2022/05/16 07:55:45;;;;;;;8.80;3.22;;;19.80;99.90;;;;;;4884614;29;20049;-94
2022/05/16 07:58:11;;;;;;;8.13;3.15;;;19.90;99.90;;;;;;4901022;29;20067;-95
2022/05/16 08:00:37;;;;;;;9.88;2.92;;;19.90;99.90;;;;;;4884868;29;20049;-93
2022/05/16 08:03:04;;;;;;;8.80;3.13;;;20.00;99.90;;;;;;4903255;29;20048;-96
2022/05/16 08:05:33;;;;;;;9.85;3.47;;;20.00;99.90;;;;;;4902220;29;20048;-96
2022/05/16 08:10:43;;;;;;;10.55;2.88;;;20.10;99.90;;;;;;4882214;29;20139;-95
2022/05/16 08:13:10;;;;;;;8.98;2.97;;;20.20;99.90;;;;;;4884600;29;20128;-93
2022/05/16 08:15:38;;;;;;;10.18;3.40;;;20.20;99.90;;;;;;4899047;29;20084;-94
2022/05/16 08:18:07;;;;;;;9.68;3.83;;;20.30;99.90;;;;;;4873175;29;20044;-94
2022/05/16 08:20:34;;;;;;;8.60;3.28;;;20.40;99.90;;;;;;4881353;29;20044;-93
2022/05/16 08:23:01;;;;;;;8.73;2.80;;;20.50;99.90;;;;;;4868733;29;20060;-96
2022/05/16 08:25:27;;;;;;;9.18;3.28;;;20.50;99.90;;;;;;4864989;29;20045;-93
2022/05/16 08:27:53;;;;;;;10.02;3.22;;;20.50;99.90;;;;;;4880924;29;20409;-93
2022/05/16 08:30:20;;;;;;;7.93;3.28;;;20.60;99.90;;;;;;4869033;29;20056;-92
2022/05/16 08:32:46;;;;;;;9.70;3.58;;;20.60;99.90;;;;;;4897145;29;20422;-93
2022/05/16 08:35:13;;;;;;;8.73;3.15;;;20.70;99.90;;;;;;4881710;29;20048;-94
2022/05/16 08:40:48;;;;;;;8.23;3.08;;;20.90;99.90;;;;;;4879659;29;20425;-91
2022/05/16 08:43:28;;;;;;;8.70;3.30;;;21.00;99.90;;;;;;4873021;29;20418;-91
2022/05/16 08:46:08;;;;;;;8.25;3.00;;;21.10;99.90;;;;;;4880731;29;20401;-96
2022/05/16 08:48:38;;;;;;;10.90;3.80;;;21.20;99.90;;;;;;4879711;29;20058;-92
2022/05/16 08:51:09;;;;;;;11.05;3.30;;;21.30;99.90;;;;;;4882393;29;20048;-93
2022/05/16 08:53:45;;;;;;;10.05;3.13;;;21.50;99.90;;;;;;4882035;29;20244;-94
2022/05/16 08:56:18;;;;;;;8.88;3.20;;;21.70;99.90;;;;;;4884513;29;20045;-93
2022/05/16 08:58:50;;;;;;;10.30;3.42;;;21.80;99.90;;;;;;4883862;29;20107;-94
2022/05/16 09:01:20;;;;;;;9.80;3.13;;;21.80;99.90;;;;;;4872065;29;20077;-96
2022/05/16 09:03:55;;;;;;;10.25;3.20;;;21.90;99.90;;;;;;4881486;29;20123;-94
2022/05/16 09:06:29;;;;;;;10.48;3.40;;;21.90;99.90;;;;;;4865634;29;20176;-95
2022/05/16 09:09:10;;;;;;;8.38;3.22;;;21.90;99.90;;;;;;4867077;29;20048;-96
2022/05/16 09:12:07;;;;;;;7.40;2.83;;;22.00;99.90;;;;;;4879685;29;20046;-92
2022/05/16 09:14:52;;;;;;;9.05;3.55;;;22.00;99.90;;;;;;4878945;29;20108;-95
2022/05/16 09:17:59;;;;;;;9.27;3.10;;;22.10;99.90;;;;;;4879713;29;20084;-96
2022/05/16 09:20:24;;;;;;;8.40;3.00;;;22.20;99.90;;;;;;4853081;29;20083;-95
2022/05/16 09:23:18;;;;;;;10.27;3.53;;;22.30;99.90;;;;;;4867841;29;20084;-96
2022/05/16 09:26:18;;;;;;;10.30;2.85;;;22.40;99.90;;;;;;4880807;29;20040;-94
2022/05/16 09:28:49;;;;;;;9.25;2.83;;;22.60;99.90;;;;;;4862354;29;20060;-96
2022/05/16 09:31:22;;;;;;;8.63;3.15;;;22.60;99.90;;;;;;4848802;29;20052;-95
2022/05/16 09:33:55;;;;;;;8.57;3.05;;;22.70;99.90;;;;;;4848542;29;20048;-94
2022/05/16 09:36:49;;;;;;;10.18;3.58;;;22.80;99.90;;;;;;4895567;29;20036;-94
2022/05/16 09:39:25;;;;;;;9.38;3.70;;;22.90;99.90;;;;;;4878956;29;20060;-94
2022/05/16 09:41:55;;;;;;;11.20;3.75;;;22.90;99.90;;;;;;4878687;29;20065;-94
2022/05/16 09:44:21;;;;;;;8.27;3.08;;;23.00;99.90;;;;;;4879132;29;20044;-94
2022/05/16 09:46:47;;;;;;;10.50;3.45;;;23.10;99.90;;;;;;4896661;29;20143;-95
2022/05/16 09:49:24;;;;;;;7.45;3.03;;;23.10;99.90;;;;;;4863986;29;20063;-94
2022/05/16 09:51:49;;;;;;;9.82;3.70;;;23.20;99.90;;;;;;4877876;29;20148;-93
2022/05/16 09:54:28;;;;;;;10.13;3.92;;;23.20;99.90;;;;;;4878692;29;20127;-95
2022/05/16 09:57:02;;;;;;;11.77;3.65;;;23.30;99.90;;;;;;4864107;29;20084;-92
2022/05/16 09:59:55;;;;;;;10.35;3.45;;;23.40;99.90;;;;;;4896146;29;20131;-95
2022/05/16 10:02:27;;;;;;;9.68;3.42;;;23.50;99.90;;;;;;4867073;29;20056;-94
2022/05/16 10:05:00;;;;;;;9.95;3.25;;;23.60;99.90;;;;;;4879135;29;20108;-93
2022/05/16 10:07:59;;;;;;;10.20;3.38;;;23.70;99.90;;;;;;4862598;29;20123;-95
2022/05/16 10:10:32;;;;;;;10.18;3.65;;;23.80;99.90;;;;;;4876708;29;20067;-94
2022/05/16 10:12:58;;;;;;;7.95;3.08;;;23.90;99.90;;;;;;4880225;29;20048;-94
2022/05/16 10:15:24;;;;;;;9.60;3.83;;;23.90;99.90;;;;;;4881931;29;20025;-94
2022/05/16 10:17:52;;;;;;;10.25;3.30;;;24.00;99.90;;;;;;4899814;29;20050;-95
2022/05/16 10:20:40;;;;;;;9.38;3.55;;;23.90;99.90;;;;;;4878104;29;20045;-94
2022/05/16 10:23:27;;;;;;;10.07;3.33;;;24.00;99.70;;;;;;4863277;29;20091;-95
2022/05/16 10:25:55;;;;;;;8.75;3.47;;;24.10;99.40;;;;;;4878054;29;20135;-94
2022/05/16 10:28:46;;;;;;;9.70;3.55;;;24.10;99.20;;;;;;4878881;29;20063;-96
2022/05/16 10:34:07;;;;;;;9.50;3.50;;;24.40;99.20;;;;;;4880102;29;20061;-96
2022/05/16 10:36:35;;;;;;;9.07;3.80;;;24.50;99.00;;;;;;4861993;29;20072;-95
2022/05/16 10:39:09;;;;;;;9.88;3.45;;;24.50;98.30;;;;;;4895784;29;20044;-96
2022/05/16 10:42:00;;;;;;;9.52;3.78;;;24.70;97.80;;;;;;4865900;29;20096;-95
2022/05/16 10:44:31;;;;;;;10.35;3.50;;;24.70;98.00;;;;;;4895545;29;20378;-94
2022/05/16 10:47:09;;;;;;;9.50;3.25;;;24.70;98.40;;;;;;4884047;29;20161;-96
2022/05/16 10:49:43;;;;;;;9.27;3.50;;;24.80;98.60;;;;;;4883037;29;20060;-93
2022/05/16 10:52:46;;;;;;;10.02;3.63;;;24.70;98.50;;;;;;4880385;29;20049;-95
2022/05/16 10:55:15;;;;;;;8.68;3.05;;;24.60;98.30;;;;;;4874935;29;20049;-95
2022/05/16 10:58:08;;;;;;;9.63;3.75;;;24.60;98.10;;;;;;4858810;29;20059;-95
2022/05/16 11:00:46;;;;;;;9.45;3.70;;;24.50;96.70;;;;;;4845603;29;20057;-96
2022/05/16 11:03:17;;;;;;;11.95;4.07;;;24.40;96.90;;;;;;4876524;29;20045;-96
2022/05/16 11:06:14;;;;;;;8.80;3.80;;;24.30;97.10;;;;;;4860004;29;20084;-94
2022/05/16 11:09:17;;;;;;;9.63;4.40;;;24.20;97.30;;;;;;4874387;29;20085;-95
2022/05/16 11:12:01;;;;;;;8.18;4.03;;;24.10;97.90;;;;;;4861340;29;20057;-96
2022/05/16 11:14:27;;;;;;;13.27;4.53;;;24.00;98.80;;;;;;4848964;29;20093;-96
2022/05/16 11:16:59;;;;;;;9.75;4.05;;;23.90;99.50;;;;;;4847909;29;20380;-96
2022/05/16 11:20:09;;;;;;;10.05;4.13;;;23.80;99.80;;;;;;4848281;29;20088;-96
2022/05/16 11:22:52;;;;;;;10.77;4.57;;;23.70;99.90;;;;;;4810646;29;20065;-94
2022/05/16 11:25:51;;;;;;;11.25;4.20;;;23.60;99.80;;;;;;4807980;29;20058;-94
2022/05/16 11:28:22;;;;;;;9.95;4.63;;;23.60;99.90;;;;;;4823548;29;20051;-94
2022/05/16 11:31:17;;;;;;;10.68;3.95;;;23.60;99.90;;;;;;4807015;29;20405;-94
2022/05/16 11:33:51;;;;;;;10.77;4.13;;;23.60;99.90;;;;;;4806451;29;20139;-95
2022/05/16 11:36:51;;;;;;;9.75;4.07;;;23.60;99.90;;;;;;4823569;29;20087;-95
2022/05/16 11:39:19;;;;;;;9.70;3.97;;;23.60;99.90;;;;;;4808915;29;20149;-94
2022/05/16 11:42:05;;;;;;;10.65;3.80;;;23.60;99.90;;;;;;4809196;29;20496;-96
2022/05/16 11:44:39;;;;;;;11.27;4.55;;;23.60;99.90;;;;;;4806868;29;20062;-95
2022/05/16 11:47:26;;;;;;;11.10;4.63;;;23.60;99.90;;;;;;4807692;29;20042;-95
2022/05/16 11:50:08;;;;;;;11.68;4.57;;;23.70;99.90;;;;;;4821905;29;20050;-93
2022/05/16 11:53:01;;;;;;;10.48;4.28;;;23.60;99.90;;;;;;4821899;29;20538;-96
2022/05/16 12:01:32;;;;;;;9.23;4.18;;;23.80;99.90;;;;;;4881669;29;20052;-95
2022/05/16 12:04:13;;;;;;;9.13;4.30;;;23.80;99.90;;;;;;4866550;29;20379;-95
2022/05/16 12:07:02;;;;;;;8.90;3.90;;;23.80;99.90;;;;;;4882784;29;20139;-95
2022/05/16 12:09:32;;;;;;;9.35;4.00;;;23.80;99.90;;;;;;4866724;29;20052;-95
2022/05/16 12:12:02;;;;;;;11.43;4.32;;;23.80;99.90;;;;;;4866465;29;20051;-96
2022/05/16 12:14:34;;;;;;;10.95;4.45;;;23.80;99.90;;;;;;4881243;29;20055;-94
2022/05/16 12:17:25;;;;;;;8.50;3.63;;;23.80;99.90;;;;;;4881840;29;20049;-95
2022/05/16 12:19:52;;;;;;;8.65;3.33;;;23.80;99.90;;;;;;4883601;29;20127;-96
2022/05/16 12:22:40;;;;;;;8.85;3.40;;;23.80;99.90;;;;;;4884176;29;20049;-95
2022/05/16 12:25:26;;;;;;;8.70;3.60;;;23.90;99.90;;;;;;4875731;29;20080;-94
2022/05/16 12:28:16;;;;;;;9.38;3.45;;;23.90;99.90;;;;;;4877877;29;20063;-96
2022/05/16 12:30:48;;;;;;;8.50;3.90;;;23.90;99.90;;;;;;4876090;29;20089;-96
2022/05/16 12:33:25;;;;;;;8.55;3.55;;;23.90;99.90;;;;;;4875065;29;20041;-93
2022/05/16 12:35:53;;;;;;;6.57;3.67;;;24.00;99.90;;;;;;4880956;29;20342;-95
2022/05/16 12:38:27;;;;;;;8.57;3.78;;;24.10;99.90;;;;;;4880886;29;20088;-95
2022/05/16 12:41:01;;;;;;;8.48;3.80;;;24.20;99.90;;;;;;4863818;29;20335;-93
2022/05/16 12:43:39;;;;;;;9.75;3.63;;;24.40;99.90;;;;;;4879710;29;20041;-93
2022/05/16 12:46:11;;;;;;;9.85;3.88;;;24.60;99.90;;;;;;4865113;29;20059;-95
2022/05/16 12:49:13;;;;;;;8.02;3.67;;;24.70;99.90;;;;;;4879756;29;20100;-93
2022/05/16 12:52:19;;;;;;;9.98;3.40;;;24.70;99.90;;;;;;4865079;29;20402;-94
2022/05/16 12:55:05;;;;;;;8.18;3.42;;;24.70;99.90;;;;;;4844614;29;20053;-93
2022/05/16 12:57:45;;;;;;;9.32;3.25;;;24.70;99.90;;;;;;4845256;29;20085;-95
2022/05/16 13:00:29;;;;;;;8.48;3.28;;;24.60;99.90;;;;;;4844988;29;20053;-94
2022/05/16 13:03:16;;;;;;;10.10;3.40;;;24.60;99.90;;;;;;4860675;29;20332;-96
2022/05/16 13:05:47;;;;;;;8.18;3.67;;;24.50;99.90;;;;;;4875784;29;20060;-95
2022/05/16 13:08:53;;;;;;;8.10;3.25;;;24.40;99.90;;;;;;4875993;29;20074;-94
2022/05/16 13:11:47;;;;;;;9.30;3.70;;;24.40;99.90;;;;;;4875729;29;20100;-95
2022/05/16 13:14:18;;;;;;;8.98;3.72;;;24.30;99.90;;;;;;4860200;29;20045;-96
2022/05/16 13:16:54;;;;;;;9.88;3.95;;;24.30;99.90;;;;;;4844363;29;20101;-96
2022/05/16 13:19:23;;;;;;;9.45;3.83;;;24.20;99.90;;;;;;4875781;29;20489;-95
2022/05/16 13:22:09;;;;;;;10.55;4.45;;;24.20;99.90;;;;;;4844579;29;20053;-94
2022/05/16 13:24:34;;;;;;;8.02;3.90;;;24.10;99.90;;;;;;4859369;29;20427;-95
2022/05/16 13:29:48;;;;;;;8.88;3.85;;;24.10;99.90;;;;;;4880214;29;20060;-91
2022/05/16 13:32:17;;;;;;;8.32;4.70;;;24.10;99.90;;;;;;4862895;29;20413;-90
2022/05/16 13:34:55;;;;;;;10.70;4.85;;;24.10;99.90;;;;;;4877984;29;20053;-92
2022/05/16 13:37:24;;;;;;;11.13;5.95;;;24.20;99.90;;;;;;4878824;29;20083;-89
2022/05/16 13:40:02;;;;;;;10.25;6.45;;;24.20;99.90;;;;;;4862603;29;20045;-93
2022/05/16 13:42:28;;;;;;;10.63;6.10;;;24.30;99.90;;;;;;4878941;29;20048;-94
2022/05/16 13:44:58;;;;;;;11.00;5.85;;;24.30;99.90;;;;;;4878105;29;20049;-96
2022/05/16 13:47:26;;;;;;;10.98;6.60;;;24.50;99.90;;;;;;4895725;29;20087;-92
2022/05/16 13:49:53;;;;;;;9.23;5.88;;;24.40;99.90;;;;;;4895206;29;20450;-91
2022/05/16 13:52:33;;;;;;;11.77;6.88;;;24.60;99.90;;;;;;4895126;29;20482;-89
2022/05/16 13:55:00;;;;;;;11.43;6.85;;;24.70;99.90;;;;;;4863422;29;20088;-93
2022/05/16 13:57:27;;;;;;;11.05;7.45;;;24.70;99.90;;;;;;4877618;29;20049;-92